createdAt,value
2018-04-28T00:00:03.875Z,9.55
2018-04-28T00:00:35.332Z,8.70
2018-04-28T00:01:06.787Z,8.57
2018-04-28T00:01:38.988Z,8.25
2018-04-28T00:02:10.451Z,8.43
2018-04-28T00:02:41.936Z,8.57
2018-04-28T00:03:14.131Z,8.38
2018-04-28T00:03:45.567Z,8.80
2018-04-28T00:04:17.039Z,8.40
2018-04-28T00:04:48.507Z,8.48
2018-04-28T00:05:19.980Z,9.10
2018-04-28T00:05:51.440Z,8.45
2018-04-28T00:06:22.907Z,8.82
2018-04-28T00:06:54.383Z,9.98
2018-04-28T00:07:26.594Z,9.80
2018-04-28T00:07:58.136Z,8.90
2018-04-28T00:08:29.535Z,8.75
2018-04-28T00:09:01.743Z,9.55
2018-04-28T00:09:33.224Z,9.80
2018-04-28T00:10:04.687Z,8.43
2018-04-28T00:10:36.175Z,8.80
2018-04-28T00:11:07.670Z,9.05
2018-04-28T00:11:39.854Z,8.30
2018-04-28T00:12:11.315Z,8.90
2018-04-28T00:12:42.779Z,9.55
2018-04-28T00:13:14.243Z,9.55
2018-04-28T00:13:45.698Z,8.23
2018-04-28T00:14:17.906Z,9.25
2018-04-28T00:14:49.363Z,8.25
2018-04-28T00:15:20.832Z,9.23
2018-04-28T00:15:53.035Z,8.10
2018-04-28T00:16:24.499Z,9.18
2018-04-28T00:16:55.955Z,9.85
2018-04-28T00:17:34.314Z,8.55
2018-04-28T00:18:05.747Z,9.00
2018-04-28T00:18:39.839Z,9.00
2018-04-28T00:19:12.039Z,9.63
2018-04-28T00:19:59.275Z,9.18
2018-04-28T00:20:30.736Z,8.80
2018-04-28T00:21:02.199Z,8.95
2018-04-28T00:21:35.259Z,8.95
2018-04-28T00:23:10.463Z,8.90
2018-04-28T00:23:42.736Z,8.95
2018-04-28T00:24:15.012Z,9.88
2018-04-28T00:24:49.187Z,9.02
2018-04-28T00:25:20.675Z,9.90
2018-04-28T00:25:52.895Z,8.73
2018-04-28T00:26:24.349Z,9.32
2018-04-28T00:27:02.008Z,9.52
2018-04-28T00:27:33.463Z,9.60
2018-04-28T00:28:11.126Z,8.70
2018-04-28T00:28:45.007Z,8.73
2018-04-28T00:29:18.195Z,8.88
2018-04-28T00:29:51.631Z,8.63
2018-04-28T00:30:26.891Z,10.18
2018-04-28T00:30:58.347Z,10.88
2018-04-28T00:31:37.814Z,8.40
2018-04-28T00:32:09.272Z,9.73
2018-04-28T00:32:40.723Z,8.45
2018-04-28T00:33:12.167Z,9.25
2018-04-28T00:33:44.468Z,9.40
2018-04-28T00:34:15.956Z,8.80
2018-04-28T00:34:57.324Z,9.70
2018-04-28T00:35:29.552Z,9.32
2018-04-28T00:36:04.714Z,8.68
2018-04-28T00:36:39.695Z,9.52
2018-04-28T00:37:13.024Z,10.07
2018-04-28T00:37:46.502Z,9.18
2018-04-28T00:38:18.691Z,8.98
2018-04-28T00:38:55.944Z,9.88
2018-04-28T00:39:28.145Z,8.55
2018-04-28T00:40:11.151Z,10.25
2018-04-28T00:40:43.488Z,10.25
2018-04-28T00:41:15.678Z,9.02
2018-04-28T00:41:47.126Z,9.07
2018-04-28T00:42:35.307Z,9.68
2018-04-28T00:43:06.772Z,8.43
2018-04-28T00:43:39.935Z,8.75
2018-04-28T00:44:12.163Z,8.55
2018-04-28T00:44:45.612Z,9.77
2018-04-28T00:45:39.786Z,10.60
2018-04-28T00:46:24.657Z,9.02
2018-04-28T00:47:59.735Z,9.30
2018-04-28T00:48:32.111Z,9.18
2018-04-28T00:49:05.439Z,9.00
2018-04-28T00:49:40.607Z,9.15
2018-04-28T00:50:15.816Z,9.20
2018-04-28T00:50:47.268Z,8.80
2018-04-28T00:51:20.657Z,8.45
2018-04-28T00:51:52.828Z,9.10
2018-04-28T00:52:25.983Z,8.30
2018-04-28T00:52:57.443Z,9.38
2018-04-28T00:53:28.910Z,9.30
2018-04-28T00:55:21.030Z,9.00
2018-04-28T00:55:52.483Z,9.10
2018-04-28T00:56:23.939Z,9.52
2018-04-28T00:56:59.224Z,10.48
2018-04-28T00:57:57.350Z,8.43
2018-04-28T00:59:17.599Z,9.02
2018-04-28T00:59:50.994Z,8.50
2018-04-28T01:01:42.568Z,8.50
2018-04-28T01:02:14.059Z,8.38
2018-04-28T01:02:47.147Z,8.70
2018-04-28T01:03:22.391Z,10.23
2018-04-28T01:04:01.801Z,8.93
2018-04-28T01:04:40.289Z,9.75
2018-04-28T01:05:19.559Z,8.82
2018-04-28T01:05:51.011Z,9.45
2018-04-28T01:06:22.468Z,9.35
2018-04-28T01:06:53.927Z,9.57
2018-04-28T01:07:25.422Z,9.60
2018-04-28T01:07:57.623Z,8.75
2018-04-28T01:08:29.082Z,9.88
2018-04-28T01:09:00.595Z,10.32
2018-04-28T01:09:32.043Z,9.23
2018-04-28T01:10:07.451Z,10.35
2018-04-28T01:10:38.908Z,9.85
2018-04-28T01:11:22.272Z,9.70
2018-04-28T01:11:55.209Z,9.70
2018-04-28T01:12:29.491Z,10.07
2018-04-28T01:13:05.787Z,9.45
2018-04-28T01:13:39.955Z,9.75
2018-04-28T01:14:11.411Z,9.07
2018-04-28T01:14:42.862Z,10.20
2018-04-28T01:15:14.315Z,8.40
2018-04-28T01:15:45.815Z,8.85
2018-04-28T01:16:17.260Z,11.02
2018-04-28T01:16:50.357Z,9.70
2018-04-28T01:17:21.815Z,11.30
2018-04-28T01:17:53.296Z,10.40
2018-04-28T01:18:24.740Z,10.57
2018-04-28T01:19:00.084Z,9.15
2018-04-28T01:20:33.255Z,9.25
2018-04-28T01:21:04.695Z,9.20
2018-04-28T01:21:36.144Z,9.57
2018-04-28T01:22:07.608Z,9.48
2018-04-28T01:22:39.059Z,10.40
2018-04-28T01:23:17.463Z,9.40
2018-04-28T01:25:08.799Z,9.93
2018-04-28T01:25:40.991Z,9.50
2018-04-28T01:26:17.522Z,9.40
2018-04-28T01:27:10.535Z,10.23
2018-04-28T01:28:46.770Z,9.13
2018-04-28T01:29:18.224Z,9.70
2018-04-28T01:31:22.377Z,10.80
2018-04-28T01:32:12.759Z,10.35
2018-04-28T01:34:20.082Z,8.93
2018-04-28T01:36:13.259Z,10.25
2018-04-28T01:37:45.859Z,8.93
2018-04-28T01:38:28.091Z,9.50
2018-04-28T01:40:11.207Z,9.52
2018-04-28T01:40:43.410Z,10.48
2018-04-28T01:41:18.589Z,10.40
2018-04-28T01:41:56.919Z,10.20
2018-04-28T01:42:30.812Z,9.70
2018-04-28T01:44:09.003Z,9.02
2018-04-28T01:45:08.254Z,10.18
2018-04-28T01:45:43.718Z,8.70
2018-04-28T01:46:21.131Z,9.75
2018-04-28T01:46:53.326Z,9.32
2018-04-28T01:47:24.779Z,10.30
2018-04-28T01:47:59.986Z,9.13
2018-04-28T01:49:53.983Z,9.57
2018-04-28T01:50:26.390Z,10.38
2018-04-28T01:51:12.603Z,9.20
2018-04-28T01:51:56.744Z,9.52
2018-04-28T01:52:29.135Z,9.02
2018-04-28T01:53:00.600Z,9.35
2018-04-28T01:53:32.924Z,9.20
2018-04-28T01:55:20.753Z,9.38
2018-04-28T01:56:10.794Z,9.32
2018-04-28T01:56:46.147Z,9.10
2018-04-28T01:57:21.274Z,8.65
2018-04-28T01:58:13.339Z,9.15
2018-04-28T01:59:03.407Z,9.30
2018-04-28T02:00:48.853Z,10.18
2018-04-28T02:01:21.187Z,8.30
2018-04-28T02:01:53.468Z,10.18
2018-04-28T02:02:35.906Z,9.43
2018-04-28T02:04:27.427Z,9.10
2018-04-28T02:05:04.571Z,9.25
2018-04-28T02:05:42.763Z,10.45
2018-04-28T02:06:20.946Z,9.05
2018-04-28T02:06:56.943Z,8.10
2018-04-28T02:07:33.463Z,9.18
2018-04-28T02:08:05.668Z,9.60
2018-04-28T02:08:37.127Z,10.30
2018-04-28T02:09:12.486Z,9.60
2018-04-28T02:09:44.883Z,9.27
2018-04-28T02:11:52.708Z,9.77
2018-04-28T02:13:13.184Z,8.82
2018-04-28T02:13:45.382Z,8.45
2018-04-28T02:14:25.887Z,10.05
2018-04-28T02:14:58.914Z,9.10
2018-04-28T02:15:30.363Z,8.55
2018-04-28T02:16:03.630Z,9.40
2018-04-28T02:16:35.903Z,9.10
2018-04-28T02:17:08.250Z,9.20
2018-04-28T02:17:46.864Z,9.30
2018-04-28T02:18:20.187Z,9.88
2018-04-28T02:20:21.507Z,8.90
2018-04-28T02:21:14.068Z,8.93
2018-04-28T02:22:51.603Z,8.63
2018-04-28T02:23:33.918Z,9.13
2018-04-28T02:25:42.375Z,9.07
2018-04-28T02:27:16.527Z,9.00
2018-04-28T02:27:57.771Z,9.25
2018-04-28T02:28:51.178Z,9.75
2018-04-28T02:29:22.627Z,8.88
2018-04-28T02:30:04.303Z,9.35
2018-04-28T02:30:47.986Z,10.07
2018-04-28T02:31:35.335Z,9.13
2018-04-28T02:32:06.764Z,8.75
2018-04-28T02:32:41.908Z,9.63
2018-04-28T02:33:13.392Z,9.13
2018-04-28T02:33:49.541Z,8.88
2018-04-28T02:34:24.697Z,9.43
2018-04-28T02:34:59.747Z,10.13
2018-04-28T02:35:46.946Z,9.00
2018-04-28T02:36:22.312Z,9.95
2018-04-28T02:36:59.763Z,9.13
2018-04-28T02:37:40.031Z,10.13
2018-04-28T02:38:19.356Z,8.85
2018-04-28T02:38:51.727Z,8.32
2018-04-28T02:39:23.175Z,9.15
2018-04-28T02:40:02.608Z,8.95
2018-04-28T02:40:52.735Z,10.10
2018-04-28T02:42:41.055Z,9.88
2018-04-28T02:43:13.504Z,8.50
2018-04-28T02:43:50.664Z,9.98
2018-04-28T02:44:23.975Z,8.85
2018-04-28T02:45:06.383Z,8.95
2018-04-28T02:45:44.823Z,9.98
2018-04-28T02:46:28.531Z,8.88
2018-04-28T02:46:59.986Z,9.70
2018-04-28T02:47:31.440Z,9.88
2018-04-28T02:48:08.820Z,8.10
2018-04-28T02:48:49.147Z,9.40
2018-04-28T02:49:31.902Z,9.57
2018-04-28T02:50:06.187Z,8.75
2018-04-28T02:50:43.303Z,10.10
2018-04-28T02:51:20.737Z,8.75
2018-04-28T02:51:53.123Z,9.10
2018-04-28T02:52:46.276Z,8.27
2018-04-28T02:53:22.567Z,9.00
2018-04-28T02:53:54.019Z,9.90
2018-04-28T02:54:26.247Z,8.73
2018-04-28T02:54:59.258Z,8.93
2018-04-28T02:55:43.024Z,9.80
2018-04-28T02:56:23.419Z,10.57
2018-04-28T02:57:01.849Z,9.45
2018-04-28T02:58:40.167Z,9.57
2018-04-28T02:59:16.551Z,9.82
2018-04-28T02:59:57.930Z,9.30
2018-04-28T03:00:32.279Z,9.88
2018-04-28T03:01:22.207Z,9.32
2018-04-28T03:02:54.465Z,8.80
2018-04-28T03:03:41.767Z,9.85
2018-04-28T03:04:16.780Z,10.02
2018-04-28T03:04:51.879Z,8.65
2018-04-28T03:05:24.163Z,9.13
2018-04-28T03:05:56.548Z,10.25
2018-04-28T03:06:38.004Z,9.40
2018-04-28T03:07:27.095Z,8.77
2018-04-28T03:08:52.850Z,9.10
2018-04-28T03:09:24.199Z,9.60
2018-04-28T03:09:57.435Z,9.13
2018-04-28T03:11:32.068Z,9.05
2018-04-28T03:12:05.115Z,10.35
2018-04-28T03:12:36.447Z,9.30
2018-04-28T03:13:16.711Z,9.75
2018-04-28T03:13:50.015Z,9.27
2018-04-28T03:14:22.174Z,10.02
2018-04-28T03:14:56.135Z,9.52
2018-04-28T03:15:27.463Z,10.07
2018-04-28T03:15:58.791Z,9.40
2018-04-28T03:16:30.127Z,9.82
2018-04-28T03:17:22.426Z,9.82
2018-04-28T03:18:43.455Z,9.60
2018-04-28T03:19:14.795Z,9.50
2018-04-28T03:19:47.859Z,9.82
2018-04-28T03:20:19.933Z,9.45
2018-04-28T03:20:52.960Z,10.90
2018-04-28T03:21:24.290Z,10.32
2018-04-28T03:21:57.458Z,10.10
2018-04-28T03:22:28.816Z,9.45
2018-04-28T03:23:00.148Z,9.80
2018-04-28T03:23:41.409Z,9.10
2018-04-28T03:25:33.362Z,9.15
2018-04-28T03:27:22.543Z,8.60
2018-04-28T03:28:18.729Z,7.93
2018-04-28T03:28:57.718Z,8.40
2018-04-28T03:29:30.005Z,9.15
2018-04-28T03:30:05.980Z,8.98
2018-04-28T03:30:41.124Z,8.55
2018-04-28T03:31:30.152Z,8.38
2018-04-28T03:32:02.391Z,8.50
2018-04-28T03:32:48.228Z,9.18
2018-04-28T03:33:25.355Z,8.45
2018-04-28T03:34:18.400Z,8.27
2018-04-28T03:34:49.722Z,8.20
2018-04-28T03:35:21.055Z,7.30
2018-04-28T03:35:52.387Z,8.00
2018-04-28T03:36:27.771Z,7.90
2018-04-28T03:37:21.507Z,8.73
2018-04-28T03:37:52.839Z,9.23
2018-04-28T03:39:37.203Z,8.38
2018-04-28T03:40:13.571Z,8.13
2018-04-28T03:40:52.791Z,7.82
2018-04-28T03:41:25.073Z,8.07
2018-04-28T03:41:56.418Z,8.77
2018-04-28T03:42:53.347Z,9.25
2018-04-28T03:43:28.684Z,8.98
2018-04-28T03:44:00.039Z,8.40
2018-04-28T03:44:42.971Z,8.07
2018-04-28T03:45:14.303Z,8.30
2018-04-28T03:45:46.371Z,8.55
2018-04-28T03:46:36.441Z,8.18
2018-04-28T03:47:15.706Z,8.77
2018-04-28T03:47:47.046Z,9.65
2018-04-28T03:48:33.339Z,9.32
2018-04-28T03:50:07.276Z,8.77
2018-04-28T03:50:47.730Z,8.90
2018-04-28T03:51:19.094Z,9.43
2018-04-28T03:52:21.771Z,9.55
2018-04-28T03:52:53.903Z,8.82
2018-04-28T03:53:29.034Z,9.43
2018-04-28T03:54:02.296Z,9.25
2018-04-28T03:54:36.632Z,8.75
2018-04-28T03:55:07.966Z,8.30
2018-04-28T03:55:39.301Z,9.25
2018-04-28T03:56:12.551Z,9.43
2018-04-28T03:56:45.828Z,10.68
2018-04-28T03:57:38.207Z,9.05
2018-04-28T03:58:21.776Z,9.50
2018-04-28T03:59:06.199Z,9.63
2018-04-28T03:59:49.723Z,9.63
2018-04-28T04:00:33.344Z,9.75
2018-04-28T04:01:16.763Z,9.68
2018-04-28T04:02:00.434Z,10.02
2018-04-28T04:02:44.908Z,9.15
2018-04-28T04:03:21.043Z,8.27
2018-04-28T04:05:07.043Z,10.27
2018-04-28T04:05:59.804Z,10.10
2018-04-28T04:06:40.079Z,9.30
2018-04-28T04:07:19.410Z,9.23
2018-04-28T04:07:50.744Z,8.85
2018-04-28T04:08:33.804Z,9.77
2018-04-28T04:09:06.794Z,9.35
2018-04-28T04:09:39.787Z,9.35
2018-04-28T04:10:29.699Z,9.43
2018-04-28T04:11:02.990Z,9.50
2018-04-28T04:13:03.064Z,10.10
2018-04-28T04:13:54.043Z,8.85
2018-04-28T04:14:35.375Z,8.55
2018-04-28T04:16:27.075Z,8.27
2018-04-28T04:17:56.475Z,8.90
2018-04-28T04:19:50.823Z,9.43
2018-04-28T04:20:38.111Z,8.43
2018-04-28T04:21:28.055Z,9.43
2018-04-28T04:22:01.203Z,8.90
2018-04-28T04:22:38.659Z,8.73
2018-04-28T04:23:30.431Z,8.50
2018-04-28T04:25:02.815Z,8.07
2018-04-28T04:25:35.966Z,9.35
2018-04-28T04:27:11.783Z,9.00
2018-04-28T04:28:01.902Z,9.65
2018-04-28T04:29:51.931Z,8.18
2018-04-28T04:30:45.306Z,9.65
2018-04-28T04:32:09.616Z,9.25
2018-04-28T04:32:41.819Z,8.75
2018-04-28T04:33:34.847Z,8.77
2018-04-28T04:35:13.644Z,8.93
2018-04-28T04:36:52.199Z,9.43
2018-04-28T04:37:39.290Z,8.55
2018-04-28T04:38:19.900Z,9.45
2018-04-28T04:38:52.011Z,8.80
2018-04-28T04:39:26.315Z,9.90
2018-04-28T04:40:01.482Z,9.90
2018-04-28T04:42:03.675Z,9.27
2018-04-28T04:42:47.351Z,8.90
2018-04-28T04:43:43.684Z,9.25
2018-04-28T04:45:25.967Z,7.78
2018-04-28T04:47:10.707Z,9.27
2018-04-28T04:47:42.787Z,8.57
2018-04-28T04:49:32.911Z,9.50
2018-04-28T04:50:20.184Z,8.82
2018-04-28T04:50:59.404Z,8.93
2018-04-28T04:52:46.171Z,10.35
2018-04-28T04:54:42.695Z,8.77
2018-04-28T04:55:30.919Z,10.23
2018-04-28T04:57:12.483Z,8.02
2018-04-28T04:58:00.683Z,8.15
2018-04-28T04:59:26.843Z,9.27
2018-04-28T05:00:10.490Z,9.20
2018-04-28T05:02:14.915Z,9.18
2018-04-28T05:03:53.428Z,8.57
2018-04-28T05:04:35.955Z,8.00
2018-04-28T05:05:18.275Z,7.70
2018-04-28T05:06:09.128Z,8.88
2018-04-28T05:07:51.083Z,7.72
2018-04-28T05:09:45.255Z,8.70
2018-04-28T05:10:27.488Z,8.65
2018-04-28T05:11:11.067Z,9.02
2018-04-28T05:11:50.133Z,9.23
2018-04-28T05:12:26.099Z,9.32
2018-04-28T05:13:05.283Z,8.63
2018-04-28T05:14:02.496Z,9.65
2018-04-28T05:14:40.848Z,8.18
2018-04-28T05:15:25.339Z,7.85
2018-04-28T05:16:01.546Z,8.63
2018-04-28T05:16:34.756Z,8.80
2018-04-28T05:17:21.751Z,8.45
2018-04-28T05:19:30.611Z,8.20
2018-04-28T05:20:25.679Z,8.32
2018-04-28T05:21:59.935Z,8.68
2018-04-28T05:22:37.239Z,8.45
2018-04-28T05:23:34.483Z,7.78
2018-04-28T05:24:28.748Z,9.40
2018-04-28T05:26:02.766Z,9.02
2018-04-28T05:26:39.931Z,8.27
2018-04-28T05:27:18.779Z,8.52
2018-04-28T05:27:55.966Z,8.48
2018-04-28T05:30:50.395Z,8.23
2018-04-28T05:32:47.786Z,7.35
2018-04-28T05:34:25.348Z,7.55
2018-04-28T05:35:05.507Z,6.87
2018-04-28T05:35:49.106Z,7.70
2018-04-28T05:36:42.358Z,7.55
2018-04-28T05:38:30.712Z,7.30
2018-04-28T05:40:21.204Z,7.03
2018-04-28T05:41:04.987Z,6.97
2018-04-28T05:43:04.919Z,6.78
2018-04-28T05:43:52.295Z,7.20
2018-04-28T05:45:42.343Z,6.78
2018-04-28T05:46:16.658Z,6.78
2018-04-28T05:46:48.918Z,6.57
2018-04-28T05:47:42.963Z,6.85
2018-04-28T05:49:37.179Z,6.95
2018-04-28T05:51:37.195Z,6.72
2018-04-28T05:53:24.581Z,6.60
2018-04-28T05:54:14.623Z,6.75
2018-04-28T05:55:52.054Z,6.43
2018-04-28T05:56:46.335Z,6.53
2018-04-28T05:57:40.659Z,10.93
2018-04-28T05:59:35.467Z,6.32
2018-04-28T06:00:15.443Z,5.85
2018-04-28T06:00:59.515Z,6.80
2018-04-28T06:03:14.115Z,6.50
2018-04-28T06:04:02.511Z,6.10
2018-04-28T06:04:42.028Z,6.03
2018-04-28T06:05:33.475Z,6.62
2018-04-28T06:06:25.812Z,6.37
2018-04-28T06:07:09.483Z,6.25
2018-04-28T06:08:49.640Z,5.10
2018-04-28T06:10:39.627Z,6.80
2018-04-28T06:11:23.047Z,5.97
2018-04-28T06:13:09.235Z,6.35
2018-04-28T06:15:05.375Z,5.68
2018-04-28T06:16:51.095Z,5.50
2018-04-28T06:17:46.151Z,6.22
2018-04-28T06:18:29.795Z,6.68
2018-04-28T06:19:13.294Z,6.35
2018-04-28T06:21:07.671Z,6.03
2018-04-28T06:21:39.003Z,5.68
2018-04-28T06:22:11.072Z,6.45
2018-04-28T06:22:42.371Z,5.97
2018-04-28T06:23:15.147Z,6.45
2018-04-28T06:23:46.451Z,5.93
2018-04-28T06:24:17.767Z,5.47
2018-04-28T06:24:49.074Z,5.37
2018-04-28T06:25:20.413Z,6.20
2018-04-28T06:25:52.516Z,5.20
2018-04-28T06:26:23.871Z,6.30
2018-04-28T06:26:55.203Z,5.60
2018-04-28T06:27:26.552Z,5.97
2018-04-28T06:27:57.890Z,5.05
2018-04-28T06:28:29.223Z,5.55
2018-04-28T06:29:00.552Z,5.75
2018-04-28T06:29:31.883Z,5.68
2018-04-28T06:30:03.223Z,4.97
2018-04-28T06:30:34.568Z,6.15
2018-04-28T06:31:05.909Z,6.00
2018-04-28T06:31:37.267Z,6.05
2018-04-28T06:32:08.598Z,5.75
2018-04-28T06:32:39.948Z,5.47
2018-04-28T06:33:11.283Z,5.25
2018-04-28T06:33:42.627Z,5.53
2018-04-28T06:34:13.976Z,5.35
2018-04-28T06:34:45.275Z,5.35
2018-04-28T06:35:16.612Z,5.78
2018-04-28T06:35:48.020Z,5.32
2018-04-28T06:36:19.284Z,5.50
2018-04-28T06:36:54.379Z,5.30
2018-04-28T06:37:25.712Z,5.65
2018-04-28T06:37:57.048Z,5.70
2018-04-28T06:38:28.381Z,5.30
2018-04-28T06:38:59.716Z,6.40
2018-04-28T06:39:31.051Z,5.07
2018-04-28T06:40:02.435Z,6.35
2018-04-28T06:40:33.740Z,5.60
2018-04-28T06:41:05.080Z,5.82
2018-04-28T06:41:36.423Z,5.37
2018-04-28T06:42:07.782Z,5.15
2018-04-28T06:42:39.124Z,6.12
2018-04-28T06:43:11.191Z,5.40
2018-04-28T06:43:43.243Z,5.10
2018-04-28T06:44:14.551Z,6.00
2018-04-28T06:44:45.849Z,4.80
2018-04-28T06:45:17.183Z,5.03
2018-04-28T06:45:48.526Z,5.68
2018-04-28T06:46:19.860Z,5.30
2018-04-28T06:46:52.037Z,5.95
2018-04-28T06:47:23.527Z,5.75
2018-04-28T06:47:54.861Z,5.55
2018-04-28T06:48:26.187Z,5.03
2018-04-28T06:48:57.611Z,6.90
2018-04-28T06:49:29.119Z,5.55
2018-04-28T06:50:01.191Z,6.40
2018-04-28T06:50:32.531Z,5.70
2018-04-28T06:51:03.943Z,6.00
2018-04-28T06:51:35.179Z,6.75
2018-04-28T06:52:06.558Z,6.70
2018-04-28T06:52:38.083Z,6.28
2018-04-28T06:53:10.114Z,5.60
2018-04-28T06:53:41.412Z,5.78
2018-04-28T06:54:12.787Z,5.68
2018-04-28T06:54:44.080Z,6.62
2018-04-28T06:55:15.407Z,6.15
2018-04-28T06:55:46.747Z,6.12
2018-04-28T06:56:18.103Z,6.10
2018-04-28T06:56:49.434Z,32.97
2018-04-28T06:57:20.763Z,60.50
2018-04-28T06:57:52.123Z,39.47
2018-04-28T06:58:23.460Z,52.45
2018-04-28T06:58:54.883Z,62.60
2018-04-28T06:59:26.163Z,20.05
2018-04-28T06:59:57.501Z,42.05
2018-04-28T07:00:28.832Z,46.03
2018-04-28T07:01:00.167Z,18.42
2018-04-28T07:01:31.504Z,13.75
2018-04-28T07:02:02.839Z,7.75
2018-04-28T07:02:34.171Z,6.70
2018-04-28T07:03:05.523Z,6.40
2018-04-28T07:03:36.863Z,6.30
2018-04-28T07:04:08.195Z,6.10
2018-04-28T07:04:39.546Z,6.65
2018-04-28T07:05:11.691Z,6.57
2018-04-28T07:05:43.031Z,6.68
2018-04-28T07:06:14.358Z,6.47
2018-04-28T07:06:46.432Z,6.12
2018-04-28T07:07:17.772Z,7.70
2018-04-28T07:07:49.111Z,7.57
2018-04-28T07:08:20.476Z,6.55
2018-04-28T07:08:51.780Z,6.03
2018-04-28T07:09:23.077Z,6.45
2018-04-28T07:09:54.387Z,7.28
2018-04-28T07:10:25.723Z,6.85
2018-04-28T07:10:57.051Z,6.20
2018-04-28T07:11:28.387Z,5.80
2018-04-28T07:11:59.726Z,7.10
2018-04-28T07:12:31.063Z,6.10
2018-04-28T07:13:02.439Z,6.85
2018-04-28T07:13:33.799Z,6.75
2018-04-28T07:14:05.135Z,6.50
2018-04-28T07:14:36.471Z,6.22
2018-04-28T07:15:07.807Z,6.75
2018-04-28T07:15:39.140Z,6.00
2018-04-28T07:16:10.475Z,6.40
2018-04-28T07:16:41.827Z,6.37
2018-04-28T07:17:13.202Z,6.07
2018-04-28T07:17:45.275Z,6.28
2018-04-28T07:18:16.614Z,6.00
2018-04-28T07:18:47.991Z,5.32
2018-04-28T07:19:19.323Z,5.10
2018-04-28T07:19:50.659Z,5.70
2018-04-28T07:20:21.983Z,5.55
2018-04-28T07:20:53.324Z,5.50
2018-04-28T07:21:24.663Z,5.87
2018-04-28T07:21:55.999Z,5.60
2018-04-28T07:22:27.334Z,6.12
2018-04-28T07:22:58.671Z,6.55
2018-04-28T07:23:30.007Z,5.25
2018-04-28T07:24:01.383Z,5.70
2018-04-28T07:24:32.719Z,5.93
2018-04-28T07:25:04.061Z,4.90
2018-04-28T07:25:35.395Z,4.72
2018-04-28T07:26:06.733Z,4.90
2018-04-28T07:26:38.072Z,4.97
2018-04-28T07:27:09.407Z,5.03
2018-04-28T07:27:40.762Z,4.35
2018-04-28T07:28:12.091Z,4.87
2018-04-28T07:28:43.435Z,5.10
2018-04-28T07:29:14.815Z,4.45
2018-04-28T07:29:46.152Z,5.10
2018-04-28T07:30:17.483Z,4.85
2018-04-28T07:30:48.815Z,4.60
2018-04-28T07:31:20.160Z,4.62
2018-04-28T07:31:51.503Z,4.87
2018-04-28T07:32:22.840Z,4.70
2018-04-28T07:32:55.061Z,4.57
2018-04-28T07:33:26.399Z,5.80
2018-04-28T07:33:57.732Z,4.90
2018-04-28T07:34:29.095Z,5.40
2018-04-28T07:35:00.431Z,5.07
2018-04-28T07:35:31.766Z,4.82
2018-04-28T07:36:03.244Z,5.20
2018-04-28T07:36:34.583Z,5.78
2018-04-28T07:37:05.925Z,5.00
2018-04-28T07:37:37.259Z,5.00
2018-04-28T07:38:08.591Z,5.15
2018-04-28T07:38:39.932Z,5.28
2018-04-28T07:39:11.272Z,5.10
2018-04-28T07:39:42.971Z,5.37
2018-04-28T07:40:14.313Z,4.90
2018-04-28T07:40:45.655Z,5.70
2018-04-28T07:41:16.995Z,6.00
2018-04-28T07:41:48.332Z,4.85
2018-04-28T07:42:19.732Z,5.03
2018-04-28T07:42:51.019Z,5.65
2018-04-28T07:43:22.351Z,5.40
2018-04-28T07:43:53.679Z,5.30
2018-04-28T07:44:25.751Z,4.80
2018-04-28T07:44:57.099Z,5.40
2018-04-28T07:45:28.427Z,5.40
2018-04-28T07:45:59.744Z,5.20
2018-04-28T07:46:31.819Z,5.00
2018-04-28T07:47:03.155Z,5.28
2018-04-28T07:47:34.564Z,5.53
2018-04-28T07:48:05.867Z,4.90
2018-04-28T07:48:37.203Z,5.05
2018-04-28T07:49:08.539Z,5.62
2018-04-28T07:49:39.875Z,4.78
2018-04-28T07:50:11.240Z,6.37
2018-04-28T07:50:42.617Z,5.87
2018-04-28T07:51:13.951Z,5.37
2018-04-28T07:51:46.767Z,5.37
2018-04-28T07:52:18.071Z,5.37
2018-04-28T07:52:50.116Z,6.20
2018-04-28T07:53:21.447Z,4.25
2018-04-28T07:53:52.788Z,5.50
2018-04-28T07:54:24.106Z,5.12
2018-04-28T07:54:55.403Z,5.65
2018-04-28T07:55:26.748Z,5.25
2018-04-28T07:55:58.064Z,5.28
2018-04-28T07:56:29.391Z,6.15
2018-04-28T07:57:00.695Z,5.75
2018-04-28T07:57:32.001Z,4.75
2018-04-28T07:58:03.307Z,5.20
2018-04-28T07:58:34.623Z,5.68
2018-04-28T07:59:05.944Z,5.82
2018-04-28T07:59:37.239Z,4.97
2018-04-28T08:00:09.306Z,5.70
2018-04-28T08:00:41.380Z,5.95
2018-04-28T08:01:12.751Z,5.12
2018-04-28T08:01:44.075Z,5.03
2018-04-28T08:02:15.387Z,5.50
2018-04-28T08:02:47.464Z,4.80
2018-04-28T08:03:18.803Z,4.93
2018-04-28T08:03:50.135Z,5.30
2018-04-28T08:04:21.480Z,4.90
2018-04-28T08:04:52.799Z,4.70
2018-04-28T08:05:24.871Z,5.65
2018-04-28T08:05:56.241Z,5.80
2018-04-28T08:06:27.578Z,4.93
2018-04-28T08:06:58.975Z,5.37
2018-04-28T08:07:30.307Z,4.90
2018-04-28T08:08:02.391Z,5.70
2018-04-28T08:08:33.724Z,5.60
2018-04-28T08:09:05.071Z,5.47
2018-04-28T08:09:36.411Z,5.50
2018-04-28T08:10:07.775Z,4.90
2018-04-28T08:10:39.107Z,6.07
2018-04-28T08:11:10.447Z,5.80
2018-04-28T08:11:41.775Z,5.80
2018-04-28T08:12:13.127Z,5.05
2018-04-28T08:12:44.463Z,5.20
2018-04-28T08:13:15.827Z,5.40
2018-04-28T08:13:47.159Z,5.32
2018-04-28T08:14:18.475Z,5.20
2018-04-28T08:14:49.811Z,6.20
2018-04-28T08:15:21.168Z,5.60
2018-04-28T08:15:52.492Z,5.53
2018-04-28T08:16:23.854Z,29.17
2018-04-28T08:16:55.198Z,71.47
2018-04-28T08:17:26.546Z,38.40
2018-04-28T08:17:57.904Z,8.82
2018-04-28T08:18:29.239Z,6.70
2018-04-28T08:19:00.571Z,5.85
2018-04-28T08:19:31.909Z,6.40
2018-04-28T08:20:03.248Z,5.68
2018-04-28T08:20:34.583Z,6.25
2018-04-28T08:21:05.915Z,5.87
2018-04-28T08:21:37.284Z,6.05
2018-04-28T08:22:08.615Z,5.62
2018-04-28T08:22:39.947Z,5.22
2018-04-28T08:23:11.435Z,5.18
2018-04-28T08:23:42.767Z,5.22
2018-04-28T08:24:14.846Z,5.28
2018-04-28T08:24:46.202Z,5.68
2018-04-28T08:25:17.522Z,6.18
2018-04-28T08:25:48.858Z,5.90
2018-04-28T08:26:20.199Z,5.10
2018-04-28T08:26:51.563Z,5.00
2018-04-28T08:27:22.903Z,4.75
2018-04-28T08:27:54.277Z,5.47
2018-04-28T08:28:25.610Z,5.45
2018-04-28T08:28:56.951Z,5.87
2018-04-28T08:29:28.320Z,5.85
2018-04-28T08:30:00.414Z,5.32
2018-04-28T08:30:31.747Z,4.87
2018-04-28T08:31:03.079Z,5.03
2018-04-28T08:31:34.415Z,5.03
2018-04-28T08:32:05.777Z,4.93
2018-04-28T08:32:37.111Z,5.03
2018-04-28T08:33:08.448Z,5.15
2018-04-28T08:33:39.783Z,5.00
2018-04-28T08:34:11.111Z,5.30
2018-04-28T08:34:42.455Z,5.72
2018-04-28T08:35:13.791Z,4.93
2018-04-28T08:35:45.128Z,5.05
2018-04-28T08:36:16.499Z,5.25
2018-04-28T08:36:47.913Z,4.90
2018-04-28T08:37:19.235Z,5.40
2018-04-28T08:37:51.315Z,5.25
2018-04-28T08:38:22.643Z,4.50
2018-04-28T08:38:54.757Z,4.60
2018-04-28T08:39:26.087Z,5.62
2018-04-28T08:39:57.423Z,5.47
2018-04-28T08:40:28.754Z,4.72
2018-04-28T08:41:00.119Z,5.05
2018-04-28T08:41:31.491Z,4.68
2018-04-28T08:42:03.535Z,5.32
2018-04-28T08:42:34.895Z,6.18
2018-04-28T08:43:06.975Z,5.90
2018-04-28T08:43:38.307Z,5.05
2018-04-28T08:44:09.626Z,5.40
2018-04-28T08:44:41.727Z,5.50
2018-04-28T08:45:13.055Z,5.70
2018-04-28T08:45:44.379Z,5.30
2018-04-28T08:46:15.683Z,5.80
2018-04-28T08:46:47.007Z,5.55
2018-04-28T08:47:18.308Z,6.00
2018-04-28T08:47:49.640Z,5.60
2018-04-28T08:48:20.984Z,5.75
2018-04-28T08:48:52.279Z,5.50
2018-04-28T08:49:23.615Z,5.55
2018-04-28T08:49:54.932Z,5.28
2018-04-28T08:50:26.249Z,4.90
2018-04-28T08:50:57.628Z,5.25
2018-04-28T08:51:28.894Z,5.60
2018-04-28T08:52:00.255Z,5.12
2018-04-28T08:52:31.591Z,4.53
2018-04-28T08:53:02.947Z,5.43
2018-04-28T08:53:34.283Z,4.80
2018-04-28T08:54:05.615Z,6.03
2018-04-28T08:54:36.959Z,5.47
2018-04-28T08:55:08.271Z,4.87
2018-04-28T08:55:40.350Z,6.05
2018-04-28T08:56:11.687Z,4.78
2018-04-28T08:56:43.077Z,5.68
2018-04-28T08:57:14.335Z,5.65
2018-04-28T08:57:45.671Z,5.47
2018-04-28T08:58:17.035Z,5.40
2018-04-28T08:58:49.111Z,5.18
2018-04-28T08:59:20.455Z,6.25
2018-04-28T09:00:04.088Z,5.00
2018-04-28T09:00:56.193Z,5.30
2018-04-28T09:01:28.223Z,5.28
2018-04-28T09:01:59.508Z,5.30
2018-04-28T09:02:30.799Z,4.90
2018-04-28T09:03:03.580Z,5.28
2018-04-28T09:03:34.897Z,4.57
2018-04-28T09:04:06.187Z,6.00
2018-04-28T09:04:37.483Z,5.70
2018-04-28T09:05:08.771Z,5.87
2018-04-28T09:05:40.071Z,5.55
2018-04-28T09:06:11.375Z,5.50
2018-04-28T09:06:44.543Z,6.25
2018-04-28T09:07:23.900Z,5.78
2018-04-28T09:07:55.199Z,5.25
2018-04-28T09:08:26.591Z,5.70
2018-04-28T09:08:57.998Z,6.03
2018-04-28T09:09:29.387Z,5.10
2018-04-28T09:10:00.772Z,5.78
2018-04-28T09:10:32.163Z,5.90
2018-04-28T09:11:03.548Z,5.40
2018-04-28T09:11:34.952Z,5.47
2018-04-28T09:12:06.339Z,5.80
2018-04-28T09:12:37.727Z,5.85
2018-04-28T09:13:09.196Z,5.35
2018-04-28T09:13:40.569Z,4.82
2018-04-28T09:14:11.987Z,5.62
2018-04-28T09:14:43.373Z,5.47
2018-04-28T09:15:14.763Z,5.37
2018-04-28T09:15:46.895Z,5.57
2018-04-28T09:16:18.287Z,5.50